Time;durP1;ratioP1;P1;durP2;ratioP2;P2;SDS_P1;SDS_P2;PMS_P1;PMS_P2;Temp;Humidity;BMP_temperature;BMP_pressure;BME280_temperature;BME280_humidity;BME280_pressure;Samples;Min_cycle;Max_cycle;Signal;HPM_P1;HPM_P2
2022/09/02 01:15:16;;;;;;;3.40;3.07;;;;;;;;;;4969784;23;21594;-83
2022/09/02 01:17:45;;;;;;;5.00;3.00;;;;;;;;;;4940472;29;20201;-83
2022/09/02 01:20:13;;;;;;;3.77;3.40;;;;;;;;;;4945139;28;20238;-83
2022/09/02 01:22:42;;;;;;;3.37;3.07;;;;;;;;;;4924370;29;20210;-83
2022/09/02 01:25:11;;;;;;;4.13;3.00;;;;;;;;;;4916619;28;20706;-82
2022/09/02 01:27:38;;;;;;;3.63;3.17;;;;;;;;;;4917189;28;20215;-83
2022/09/02 01:30:10;;;;;;;6.70;3.13;;;;;;;;;;4917094;29;20245;-82
2022/09/02 01:32:37;;;;;;;7.83;3.17;;;;;;;;;;4917170;29;20219;-83
2022/09/02 01:35:05;;;;;;;6.53;3.50;;;;;;;;;;4925571;28;20254;-82
2022/09/02 01:37:32;;;;;;;8.33;3.27;;;;;;;;;;4935616;29;20238;-84
2022/09/02 01:40:01;;;;;;;4.50;2.93;;;;;;;;;;4935395;29;20230;-83
2022/09/02 01:42:29;;;;;;;5.47;3.57;;;;;;;;;;4922435;29;20203;-84
2022/09/02 01:44:56;;;;;;;3.30;3.00;;;;;;;;;;4917834;28;20258;-82
2022/09/02 01:47:24;;;;;;;3.93;2.90;;;;;;;;;;4918197;29;20211;-83
2022/09/02 01:49:51;;;;;;;3.70;3.40;;;;;;;;;;4917697;28;20242;-82
2022/09/02 01:52:19;;;;;;;5.97;3.23;;;;;;;;;;4918283;29;20214;-83
2022/09/02 01:54:46;;;;;;;5.23;3.60;;;;;;;;;;4917236;29;20242;-82
2022/09/02 01:57:15;;;;;;;5.17;3.47;;;;;;;;;;4917148;29;20226;-83
2022/09/02 01:59:43;;;;;;;4.47;3.30;;;;;;;;;;4917102;29;20243;-83
2022/09/02 02:02:10;;;;;;;5.47;3.03;;;;;;;;;;4917075;29;20667;-83
2022/09/02 02:04:37;;;;;;;5.37;3.30;;;;;;;;;;4916566;29;20241;-82
2022/09/02 02:07:04;;;;;;;3.63;3.23;;;;;;;;;;4917441;29;20233;-83
2022/09/02 02:09:31;;;;;;;3.40;3.20;;;;;;;;;;4917215;29;20241;-82
2022/09/02 02:11:58;;;;;;;6.10;3.50;;;;;;;;;;4929518;29;20209;-82
2022/09/02 02:14:27;;;;;;;8.23;3.30;;;;;;;;;;4935257;28;20257;-83
2022/09/02 02:16:54;;;;;;;5.20;3.63;;;;;;;;;;4935565;29;20230;-83
2022/09/02 02:19:21;;;;;;;3.83;3.40;;;;;;;;;;4936324;28;20247;-83
2022/09/02 02:21:49;;;;;;;4.40;3.27;;;;;;;;;;4936152;29;20221;-82
2022/09/02 02:24:16;;;;;;;3.70;3.40;;;;;;;;;;4946802;28;20644;-82
2022/09/02 02:26:43;;;;;;;5.97;3.27;;;;;;;;;;4945302;28;20539;-83
2022/09/02 02:29:10;;;;;;;3.63;3.33;;;;;;;;;;4945133;28;20256;-82
2022/09/02 02:31:38;;;;;;;3.50;3.20;;;;;;;;;;4942773;29;20577;-83
2022/09/02 02:34:05;;;;;;;4.20;3.30;;;;;;;;;;4942857;28;20226;-83
2022/09/02 02:36:32;;;;;;;3.40;3.10;;;;;;;;;;4943211;29;20717;-84
2022/09/02 02:39:00;;;;;;;4.17;3.27;;;;;;;;;;4941499;28;20210;-82
2022/09/02 02:41:27;;;;;;;3.00;2.77;;;;;;;;;;4941510;28;20202;-82
2022/09/02 02:43:54;;;;;;;7.17;3.30;;;;;;;;;;4941782;28;20261;-83
2022/09/02 02:46:21;;;;;;;4.23;3.23;;;;;;;;;;4939796;28;20246;-82
2022/09/02 02:48:50;;;;;;;6.13;3.80;;;;;;;;;;4941686;29;20224;-84
2022/09/02 02:51:17;;;;;;;6.80;3.40;;;;;;;;;;4938141;28;20242;-83
2022/09/02 02:53:44;;;;;;;4.07;3.67;;;;;;;;;;4937644;29;20222;-83
2022/09/02 02:56:11;;;;;;;5.03;2.97;;;;;;;;;;4937142;28;20245;-83
2022/09/02 02:58:38;;;;;;;4.77;3.10;;;;;;;;;;4936697;29;20241;-83
2022/09/02 03:01:06;;;;;;;7.30;3.60;;;;;;;;;;4935947;28;20641;-83
2022/09/02 03:03:33;;;;;;;5.40;4.60;;;;;;;;;;4937668;28;20206;-83
2022/09/02 03:06:02;;;;;;;6.20;3.60;;;;;;;;;;4936938;28;20242;-83
2022/09/02 03:08:29;;;;;;;3.60;3.30;;;;;;;;;;4936791;29;20214;-83
2022/09/02 03:10:58;;;;;;;3.50;3.20;;;;;;;;;;4936529;28;20325;-83
2022/09/02 03:13:26;;;;;;;4.10;3.10;;;;;;;;;;4936868;28;20334;-83
2022/09/02 03:15:53;;;;;;;3.90;3.57;;;;;;;;;;4935908;28;20623;-82
2022/09/02 03:18:20;;;;;;;4.30;3.30;;;;;;;;;;4935580;29;20202;-83
2022/09/02 03:20:47;;;;;;;3.93;3.53;;;;;;;;;;4936452;28;20238;-83
2022/09/02 03:23:16;;;;;;;4.87;3.50;;;;;;;;;;4936795;29;20210;-83
2022/09/02 03:25:44;;;;;;;6.30;3.17;;;;;;;;;;4936265;28;20238;-82
2022/09/02 03:28:12;;;;;;;3.83;3.53;;;;;;;;;;4936728;28;20218;-83
2022/09/02 03:30:40;;;;;;;3.83;3.50;;;;;;;;;;4931843;28;20234;-83
2022/09/02 03:33:07;;;;;;;4.03;3.20;;;;;;;;;;4917634;29;20576;-83
2022/09/02 03:35:38;;;;;;;3.77;3.47;;;;;;;;;;4932332;28;20230;-83
2022/09/02 03:38:05;;;;;;;4.00;3.70;;;;;;;;;;4935964;29;20255;-83
2022/09/02 03:40:34;;;;;;;5.97;3.20;;;;;;;;;;4935753;28;20238;-83
2022/09/02 03:43:01;;;;;;;4.70;3.63;;;;;;;;;;4937119;29;20210;-82
2022/09/02 03:45:28;;;;;;;3.60;3.30;;;;;;;;;;4936408;28;20239;-82
2022/09/02 03:47:56;;;;;;;5.67;3.83;;;;;;;;;;4937179;29;20217;-82
2022/09/02 03:50:25;;;;;;;3.87;3.57;;;;;;;;;;4935201;28;20696;-82
2022/09/02 03:52:52;;;;;;;4.07;3.77;;;;;;;;;;4935564;29;20579;-83
2022/09/02 03:55:19;;;;;;;3.53;3.23;;;;;;;;;;4924423;28;20249;-83
2022/09/02 03:57:48;;;;;;;4.07;3.63;;;;;;;;;;4916505;29;20200;-84
2022/09/02 04:00:17;;;;;;;6.70;3.53;;;;;;;;;;4916603;28;20238;-83
2022/09/02 04:02:44;;;;;;;3.73;3.30;;;;;;;;;;4914558;29;20218;-82
2022/09/02 04:05:12;;;;;;;5.30;3.57;;;;;;;;;;4914213;28;20250;-83
2022/09/02 04:07:39;;;;;;;3.67;3.37;;;;;;;;;;4916580;29;20260;-82
2022/09/02 04:10:07;;;;;;;3.90;3.60;;;;;;;;;;4918073;28;20238;-83
2022/09/02 04:12:34;;;;;;;4.83;3.53;;;;;;;;;;4962809;28;20208;-83
2022/09/02 04:15:03;;;;;;;4.10;3.70;;;;;;;;;;4900342;28;20239;-82
2022/09/02 04:17:30;;;;;;;4.83;3.30;;;;;;;;;;4898158;29;20222;-82
2022/09/02 04:19:57;;;;;;;3.60;3.30;;;;;;;;;;4898027;28;20250;-83
2022/09/02 04:22:24;;;;;;;3.73;3.43;;;;;;;;;;4898076;29;20211;-82
2022/09/02 04:24:51;;;;;;;4.53;3.50;;;;;;;;;;4897616;28;20232;-83
2022/09/02 04:27:20;;;;;;;7.40;3.83;;;;;;;;;;4899300;29;20602;-83
2022/09/02 04:29:47;;;;;;;7.43;3.40;;;;;;;;;;4936861;28;20241;-83
2022/09/02 04:32:15;;;;;;;4.67;3.40;;;;;;;;;;5015156;28;20565;-83
2022/09/02 04:34:42;;;;;;;6.77;3.53;;;;;;;;;;5014182;28;20238;-83
2022/09/02 04:37:09;;;;;;;3.43;3.00;;;;;;;;;;5016413;28;20235;-83
2022/09/02 04:39:36;;;;;;;11.17;3.70;;;;;;;;;;5014709;28;20242;-83
2022/09/02 04:42:03;;;;;;;12.27;3.80;;;;;;;;;;5015014;28;20226;-83
2022/09/02 04:44:35;;;;;;;4.17;3.07;;;;;;;;;;5014799;28;20230;-83
2022/09/02 04:47:02;;;;;;;4.53;3.10;;;;;;;;;;5014975;28;20227;-83
2022/09/02 04:49:32;;;;;;;7.53;3.70;;;;;;;;;;5013863;28;20242;-82
2022/09/02 04:51:59;;;;;;;6.80;3.27;;;;;;;;;;5016906;28;20750;-83
2022/09/02 04:54:27;;;;;;;5.23;3.40;;;;;;;;;;5015955;28;20246;-83
2022/09/02 04:56:55;;;;;;;6.67;3.30;;;;;;;;;;5032337;28;20223;-83
2022/09/02 04:59:23;;;;;;;3.63;3.33;;;;;;;;;;5019992;28;20239;-83
2022/09/02 05:01:50;;;;;;;3.70;3.40;;;;;;;;;;5020261;28;20210;-82
2022/09/02 05:04:17;;;;;;;4.83;3.00;;;;;;;;;;5021895;28;20300;-83
2022/09/02 05:06:46;;;;;;;3.93;3.13;;;;;;;;;;5019334;28;20230;-83
2022/09/02 05:09:14;;;;;;;3.83;3.53;;;;;;;;;;5032499;28;20631;-84
2022/09/02 05:11:41;;;;;;;3.40;2.83;;;;;;;;;;5032917;28;20301;-83
2022/09/02 05:14:08;;;;;;;4.60;3.20;;;;;;;;;;5027494;28;20225;-82
2022/09/02 05:16:36;;;;;;;5.13;3.60;;;;;;;;;;5026356;28;20276;-82
2022/09/02 05:19:04;;;;;;;5.60;3.40;;;;;;;;;;5027418;28;20196;-82
2022/09/02 05:21:31;;;;;;;4.43;2.93;;;;;;;;;;5034306;28;20210;-82
2022/09/02 05:24:00;;;;;;;3.97;3.20;;;;;;;;;;5026298;28;20254;-83
2022/09/02 05:26:27;;;;;;;4.83;2.80;;;;;;;;;;5043831;28;20223;-82
2022/09/02 05:28:54;;;;;;;6.83;3.10;;;;;;;;;;5045095;28;20306;-83
2022/09/02 05:31:21;;;;;;;9.10;3.43;;;;;;;;;;5031358;28;20289;-84
2022/09/02 05:33:49;;;;;;;3.73;3.20;;;;;;;;;;5041201;28;20207;-83
2022/09/02 05:36:17;;;;;;;3.70;3.40;;;;;;;;;;5036122;28;20235;-83
2022/09/02 05:38:45;;;;;;;6.03;3.03;;;;;;;;;;5034059;28;20572;-82
2022/09/02 05:41:23;;;;;;;6.10;3.10;;;;;;;;;;5041665;28;20242;-86
2022/09/02 05:43:50;;;;;;;3.07;2.70;;;;;;;;;;5034539;28;20203;-82
2022/09/02 05:46:19;;;;;;;3.67;2.90;;;;;;;;;;5026335;28;20243;-83
2022/09/02 05:49:06;;;;;;;4.13;2.60;;;;;;;;;;5024209;28;20211;-82
2022/09/02 05:51:34;;;;;;;6.27;3.03;;;;;;;;;;5043463;28;20210;-82
2022/09/02 05:54:01;;;;;;;7.17;2.77;;;;;;;;;;5043412;28;20234;-82
2022/09/02 05:56:30;;;;;;;2.67;2.47;;;;;;;;;;5043658;28;20257;-82
2022/09/02 05:58:58;;;;;;;2.67;2.47;;;;;;;;;;5042733;28;20214;-82
2022/09/02 06:01:26;;;;;;;4.23;2.60;;;;;;;;;;5038579;28;20227;-82
2022/09/02 06:03:54;;;;;;;4.00;2.50;;;;;;;;;;5043515;28;20206;-81
2022/09/02 06:06:23;;;;;;;3.70;2.50;;;;;;;;;;5042332;28;20262;-82
2022/09/02 06:08:50;;;;;;;4.17;2.53;;;;;;;;;;5043987;28;20210;-82
2022/09/02 06:11:18;;;;;;;3.40;2.53;;;;;;;;;;5053263;28;20244;-83
2022/09/02 06:13:47;;;;;;;2.70;2.50;;;;;;;;;;5053913;28;20211;-82
2022/09/02 06:16:15;;;;;;;7.03;2.67;;;;;;;;;;5053311;28;20238;-82
2022/09/02 06:18:42;;;;;;;3.17;2.10;;;;;;;;;;5046493;28;20218;-83
2022/09/02 06:21:09;;;;;;;3.23;2.70;;;;;;;;;;5047361;28;20231;-83
2022/09/02 06:23:37;;;;;;;3.50;2.60;;;;;;;;;;5040009;28;20191;-83
2022/09/02 06:26:05;;;;;;;2.53;2.33;;;;;;;;;;5024815;28;20353;-83
2022/09/02 06:28:32;;;;;;;2.73;2.13;;;;;;;;;;5022742;28;20723;-83
2022/09/02 06:31:06;;;;;;;2.40;2.20;;;;;;;;;;5021258;28;20235;-83
2022/09/02 06:33:33;;;;;;;2.30;2.20;;;;;;;;;;5024872;28;20190;-81
2022/09/02 06:36:00;;;;;;;2.77;2.23;;;;;;;;;;5042734;28;20243;-81
2022/09/02 06:38:28;;;;;;;4.30;2.00;;;;;;;;;;5039563;28;20223;-83
2022/09/02 06:40:56;;;;;;;2.93;2.07;;;;;;;;;;5009483;28;20222;-81
2022/09/02 06:43:23;;;;;;;2.10;1.90;;;;;;;;;;5018642;28;20211;-79
2022/09/02 06:45:50;;;;;;;5.17;2.40;;;;;;;;;;5014596;28;20259;-80
2022/09/02 06:48:20;;;;;;;2.70;2.50;;;;;;;;;;5019085;28;20211;-84
2022/09/02 06:50:47;;;;;;;2.37;1.80;;;;;;;;;;5029627;28;20241;-81
2022/09/02 06:53:16;;;;;;;2.23;2.03;;;;;;;;;;5041055;28;20205;-82
2022/09/02 06:55:46;;;;;;;2.33;2.10;;;;;;;;;;5039547;28;20235;-82
2022/09/02 06:58:13;;;;;;;2.70;1.97;;;;;;;;;;5041429;28;20203;-82
2022/09/02 07:00:41;;;;;;;2.10;2.00;;;;;;;;;;5041808;28;20239;-83
2022/09/02 07:06:08;;;;;;;2.70;1.90;;;;;;;;;;5003062;28;20234;-82
2022/09/02 07:08:35;;;;;;;2.90;1.83;;;;;;;;;;5039647;28;20227;-82
2022/09/02 07:11:16;;;;;;;1.77;1.67;;;;;;;;;;5039347;28;20239;-84
2022/09/02 07:13:44;;;;;;;2.90;2.20;;;;;;;;;;5040763;28;20234;-82
2022/09/02 07:16:11;;;;;;;3.20;1.80;;;;;;;;;;5039574;28;20234;-82
2022/09/02 07:18:38;;;;;;;1.67;1.57;;;;;;;;;;5039004;28;20576;-82
2022/09/02 07:21:08;;;;;;;2.50;1.80;;;;;;;;;;5039137;28;20234;-82
2022/09/02 07:23:35;;;;;;;2.33;1.80;;;;;;;;;;5042704;28;20631;-81
2022/09/02 07:26:02;;;;;;;2.13;1.60;;;;;;;;;;5042626;28;20266;-82
2022/09/02 07:28:30;;;;;;;2.10;1.47;;;;;;;;;;5041911;28;20666;-82
2022/09/02 07:30:57;;;;;;;2.43;1.67;;;;;;;;;;5038134;28;20245;-82
2022/09/02 07:33:24;;;;;;;2.53;1.50;;;;;;;;;;5038732;28;20195;-81
2022/09/02 07:35:58;;;;;;;1.83;1.33;;;;;;;;;;5037463;28;20238;-81
2022/09/02 07:38:27;;;;;;;3.43;1.63;;;;;;;;;;5037561;28;20209;-82
2022/09/02 07:40:54;;;;;;;1.87;1.73;;;;;;;;;;4972299;28;20252;-82
2022/09/02 07:43:23;;;;;;;2.23;1.50;;;;;;;;;;4957441;29;20673;-82
2022/09/02 07:45:52;;;;;;;1.35;1.25;;;;;;;;;;4957247;28;20247;-82
2022/09/02 07:48:19;;;;;;;2.20;1.50;;;;;;;;;;4956945;29;20216;-83
2022/09/02 07:50:47;;;;;;;1.65;1.27;;;;;;;;;;4956403;28;20237;-82
2022/09/02 07:53:15;;;;;;;2.75;1.30;;;;;;;;;;4957529;28;20189;-83
2022/09/02 07:55:43;;;;;;;2.05;1.30;;;;;;;;;;5030337;28;20226;-82
2022/09/02 07:58:12;;;;;;;1.58;1.40;;;;;;;;;;5048029;28;20293;-81
2022/09/02 08:00:40;;;;;;;1.60;1.50;;;;;;;;;;4966208;28;20284;-81
2022/09/02 08:03:10;;;;;;;1.27;1.27;;;;;;;;;;4939126;28;20221;-81
2022/09/02 08:05:38;;;;;;;1.77;1.20;;;;;;;;;;4937314;28;20241;-80
2022/09/02 08:08:05;;;;;;;4.78;1.27;;;;;;;;;;4982296;28;20210;-81
2022/09/02 08:10:32;;;;;;;3.38;1.40;;;;;;;;;;4937983;28;20242;-81
2022/09/02 08:13:11;;;;;;;1.60;1.05;;;;;;;;;;4938106;29;20206;-81
2022/09/02 08:15:39;;;;;;;3.65;1.13;;;;;;;;;;4936994;28;20245;-83
2022/09/02 08:18:07;;;;;;;3.38;1.20;;;;;;;;;;4937419;29;20210;-81
2022/09/02 08:20:34;;;;;;;2.13;1.30;;;;;;;;;;4937490;28;20234;-80
2022/09/02 08:23:05;;;;;;;3.38;1.58;;;;;;;;;;4937412;29;20226;-82
2022/09/02 08:25:32;;;;;;;3.95;1.52;;;;;;;;;;4923893;28;20245;-80
2022/09/02 08:27:59;;;;;;;1.20;1.15;;;;;;;;;;4929751;29;20210;-81
2022/09/02 08:30:29;;;;;;;2.25;0.90;;;;;;;;;;4937885;29;20611;-80
2022/09/02 08:32:57;;;;;;;4.30;1.35;;;;;;;;;;4939256;29;20267;-80
2022/09/02 08:35:24;;;;;;;3.97;1.00;;;;;;;;;;4939937;28;20618;-80
2022/09/02 08:38:09;;;;;;;1.35;1.10;;;;;;;;;;4940332;28;20214;-82
2022/09/02 08:40:38;;;;;;;2.72;1.15;;;;;;;;;;4940695;29;20241;-81
2022/09/02 08:43:08;;;;;;;3.33;0.95;;;;;;;;;;4939718;28;20283;-83
2022/09/02 08:45:37;;;;;;;1.52;1.25;;;;;;;;;;4941666;28;20238;-81
2022/09/02 08:48:08;;;;;;;1.85;1.13;;;;;;;;;;4940842;28;20218;-81
2022/09/02 08:50:36;;;;;;;1.33;1.13;;;;;;;;;;4940054;28;20230;-81
2022/09/02 08:53:12;;;;;;;1.08;0.98;;;;;;;;;;4941070;28;20214;-81
2022/09/02 08:55:50;;;;;;;1.67;1.33;;;;;;;;;;4939242;29;20325;-81
2022/09/02 08:58:21;;;;;;;1.77;1.17;;;;;;;;;;4941003;28;20206;-82
2022/09/02 09:00:52;;;;;;;1.10;1.10;;;;;;;;;;4936559;28;20238;-81
2022/09/02 09:03:24;;;;;;;2.10;1.20;;;;;;;;;;4920894;29;20209;-81
2022/09/02 09:05:54;;;;;;;1.10;1.05;;;;;;;;;;4919460;29;20739;-82
2022/09/02 09:08:28;;;;;;;2.75;1.02;;;;;;;;;;4921115;29;20230;-81
2022/09/02 09:10:59;;;;;;;0.82;0.82;;;;;;;;;;4920378;29;20248;-80
2022/09/02 09:13:57;;;;;;;1.52;1.10;;;;;;;;;;4921240;29;20202;-81
2022/09/02 09:16:30;;;;;;;1.13;1.00;;;;;;;;;;4861832;29;20331;-81
2022/09/02 09:19:00;;;;;;;2.50;1.15;;;;;;;;;;4910909;29;20214;-81
2022/09/02 09:21:32;;;;;;;1.73;1.10;;;;;;;;;;4922374;28;20215;-81
2022/09/02 09:24:01;;;;;;;1.60;1.13;;;;;;;;;;4921147;28;20210;-80
2022/09/02 09:26:30;;;;;;;1.70;1.05;;;;;;;;;;4919951;28;20223;-83
2022/09/02 09:28:58;;;;;;;1.75;1.10;;;;;;;;;;4961109;23;20400;-88
2022/09/02 09:31:29;;;;;;;2.35;1.30;;;;;;;;;;4947568;29;20297;-87
2022/09/02 09:33:58;;;;;;;1.13;0.93;;;;;;;;;;4955285;28;20549;-89
2022/09/02 09:36:40;;;;;;;1.45;0.93;;;;;;;;;;4954975;29;20237;-90
2022/09/02 09:39:17;;;;;;;4.72;1.25;;;;;;;;;;4954232;28;20240;-89
2022/09/02 09:41:44;;;;;;;2.78;1.20;;;;;;;;;;4936943;28;20194;-91
2022/09/02 09:44:26;;;;;;;1.10;1.00;;;;;;;;;;4935577;28;20573;-90
2022/09/02 09:47:01;;;;;;;1.80;1.20;;;;;;;;;;4917272;29;20664;-90
2022/09/02 09:49:28;;;;;;;1.88;1.08;;;;;;;;;;4934066;28;20269;-91
2022/09/02 09:51:55;;;;;;;1.90;1.00;;;;;;;;;;4934996;29;20214;-89
2022/09/02 09:54:26;;;;;;;2.25;1.00;;;;;;;;;;4932700;28;20241;-80
2022/09/02 09:56:53;;;;;;;1.58;1.00;;;;;;;;;;4920967;29;20604;-81
2022/09/02 09:59:35;;;;;;;1.38;1.00;;;;;;;;;;4917391;28;20250;-87
2022/09/02 10:02:04;;;;;;;1.42;0.80;;;;;;;;;;4922355;29;20210;-84
2022/09/02 10:04:32;;;;;;;2.13;1.10;;;;;;;;;;4914807;28;20245;-85
2022/09/02 10:06:59;;;;;;;2.58;0.70;;;;;;;;;;4923928;28;20214;-83
2022/09/02 10:09:32;;;;;;;1.63;1.02;;;;;;;;;;4945732;28;20229;-84
2022/09/02 10:12:00;;;;;;;4.28;1.13;;;;;;;;;;4939034;29;20214;-87
2022/09/02 10:14:29;;;;;;;1.35;1.02;;;;;;;;;;4939339;28;20237;-86
2022/09/02 10:17:01;;;;;;;2.13;1.00;;;;;;;;;;4932655;29;20238;-86
2022/09/02 10:19:34;;;;;;;1.85;0.90;;;;;;;;;;4934823;29;20250;-87
2022/09/02 10:22:07;;;;;;;1.67;1.10;;;;;;;;;;4934586;29;20214;-90
2022/09/02 10:24:41;;;;;;;1.20;1.10;;;;;;;;;;4933549;28;20242;-91
2022/09/02 10:27:16;;;;;;;1.10;0.80;;;;;;;;;;4933443;29;20214;-90
2022/09/02 10:29:48;;;;;;;1.50;0.80;;;;;;;;;;4934185;28;20236;-91
2022/09/02 10:32:25;;;;;;;3.15;0.80;;;;;;;;;;4915272;29;20671;-90
2022/09/02 10:35:01;;;;;;;0.93;0.88;;;;;;;;;;4913970;29;20265;-91
2022/09/02 10:37:31;;;;;;;1.45;0.77;;;;;;;;;;4916509;29;20273;-91
2022/09/02 10:40:05;;;;;;;1.20;1.10;;;;;;;;;;4932732;28;20242;-90
2022/09/02 10:42:36;;;;;;;1.20;0.90;;;;;;;;;;5003648;28;20205;-91
2022/09/02 10:45:07;;;;;;;0.70;0.68;;;;;;;;;;5034078;28;20253;-91
2022/09/02 10:47:36;;;;;;;1.20;0.93;;;;;;;;;;5013812;28;20233;-89
2022/09/02 10:50:08;;;;;;;0.82;0.73;;;;;;;;;;4933752;28;20269;-89
2022/09/02 10:52:42;;;;;;;1.58;0.90;;;;;;;;;;4933297;29;20190;-89
2022/09/02 10:55:14;;;;;;;0.85;0.85;;;;;;;;;;4933460;28;20244;-88
2022/09/02 10:57:46;;;;;;;0.98;0.90;;;;;;;;;;4934261;29;20230;-89
2022/09/02 11:00:15;;;;;;;1.40;1.00;;;;;;;;;;4933216;28;20229;-87
2022/09/02 11:02:45;;;;;;;1.10;0.93;;;;;;;;;;4934365;29;20254;-87
2022/09/02 11:05:15;;;;;;;3.05;1.10;;;;;;;;;;4933484;28;20249;-88
2022/09/02 11:07:44;;;;;;;2.15;0.90;;;;;;;;;;4933761;29;20234;-88
2022/09/02 11:10:16;;;;;;;2.75;1.02;;;;;;;;;;4933225;28;20245;-88
2022/09/02 11:12:47;;;;;;;1.10;0.70;;;;;;;;;;4933650;29;20608;-89
2022/09/02 11:15:20;;;;;;;3.15;1.10;;;;;;;;;;4933455;28;20252;-89
2022/09/02 11:17:50;;;;;;;2.33;1.10;;;;;;;;;;4934076;29;20949;-88
2022/09/02 11:20:23;;;;;;;1.77;0.95;;;;;;;;;;4933571;28;20268;-90
2022/09/02 11:22:53;;;;;;;1.65;1.00;;;;;;;;;;4933733;29;20631;-89
2022/09/02 11:25:23;;;;;;;3.75;1.25;;;;;;;;;;4934088;28;20602;-89
2022/09/02 11:27:55;;;;;;;1.80;1.17;;;;;;;;;;4936945;29;20257;-89
2022/09/02 11:30:24;;;;;;;1.73;1.20;;;;;;;;;;4938617;28;20264;-89
2022/09/02 11:32:58;;;;;;;2.33;0.82;;;;;;;;;;4939824;29;20213;-89
2022/09/02 11:35:27;;;;;;;0.77;0.77;;;;;;;;;;4938036;28;20237;-90
2022/09/02 11:37:57;;;;;;;3.53;1.00;;;;;;;;;;4937961;29;20643;-88
2022/09/02 11:40:27;;;;;;;1.95;0.90;;;;;;;;;;5014874;28;20761;-89
2022/09/02 11:43:04;;;;;;;0.60;0.60;;;;;;;;;;5033558;28;20193;-89
2022/09/02 11:45:38;;;;;;;0.70;0.70;;;;;;;;;;5033306;28;20238;-88
2022/09/02 11:48:10;;;;;;;1.13;0.80;;;;;;;;;;5033375;28;20218;-89
2022/09/02 11:50:53;;;;;;;0.70;0.63;;;;;;;;;;5034090;28;20235;-90
2022/09/02 11:53:22;;;;;;;0.70;0.70;;;;;;;;;;5033975;28;20832;-89
2022/09/02 11:55:50;;;;;;;2.10;0.73;;;;;;;;;;5034045;28;20608;-90
2022/09/02 11:58:31;;;;;;;0.98;0.80;;;;;;;;;;5037030;28;20222;-89
2022/09/02 12:01:05;;;;;;;3.70;0.60;;;;;;;;;;5036493;28;20627;-90
2022/09/02 12:03:33;;;;;;;1.58;0.80;;;;;;;;;;5036355;28;20661;-87
2022/09/02 12:06:12;;;;;;;1.42;0.70;;;;;;;;;;5036533;28;20237;-90
2022/09/02 12:09:01;;;;;;;1.38;0.68;;;;;;;;;;5036607;28;20218;-90
2022/09/02 12:11:55;;;;;;;1.60;0.75;;;;;;;;;;5032835;28;20214;-91
2022/09/02 12:14:42;;;;;;;1.10;0.88;;;;;;;;;;5011144;28;20234;-90
2022/09/02 12:17:11;;;;;;;7.40;1.65;;;;;;;;;;5037845;28;20226;-91
2022/09/02 12:19:43;;;;;;;0.70;0.68;;;;;;;;;;5036217;28;20284;-89
2022/09/02 12:22:38;;;;;;;3.30;0.93;;;;;;;;;;5037764;28;20241;-90
2022/09/02 12:25:27;;;;;;;0.73;0.70;;;;;;;;;;5012918;28;20230;-91
2022/09/02 12:28:09;;;;;;;1.20;0.65;;;;;;;;;;5035633;28;20226;-91
2022/09/02 12:30:54;;;;;;;0.77;0.75;;;;;;;;;;5037526;28;20230;-90
2022/09/02 12:33:29;;;;;;;1.10;1.00;;;;;;;;;;5025186;28;20217;-91
2022/09/02 12:35:58;;;;;;;1.17;1.02;;;;;;;;;;5038076;28;20234;-91
2022/09/02 12:38:26;;;;;;;1.58;0.65;;;;;;;;;;5038188;28;20281;-90
2022/09/02 12:40:58;;;;;;;0.90;0.68;;;;;;;;;;5035737;28;20237;-91
2022/09/02 12:43:27;;;;;;;1.42;1.08;;;;;;;;;;5035086;28;20206;-90
2022/09/02 12:45:56;;;;;;;1.40;0.85;;;;;;;;;;4985486;28;20233;-91
2022/09/02 12:48:25;;;;;;;1.35;0.90;;;;;;;;;;4952841;28;20233;-91
2022/09/02 12:50:54;;;;;;;0.80;0.80;;;;;;;;;;4938036;28;20248;-90
2022/09/02 12:53:26;;;;;;;0.70;0.70;;;;;;;;;;4933602;29;20253;-90
2022/09/02 12:55:56;;;;;;;0.55;0.55;;;;;;;;;;4933034;28;20238;-91
2022/09/02 12:58:25;;;;;;;2.17;0.90;;;;;;;;;;4934327;29;20284;-92
2022/09/02 13:00:57;;;;;;;1.48;0.70;;;;;;;;;;4933092;28;20240;-91
2022/09/02 13:03:42;;;;;;;1.55;0.75;;;;;;;;;;4933459;29;20521;-90
2022/09/02 13:06:12;;;;;;;2.10;0.60;;;;;;;;;;4932907;28;20280;-90
2022/09/02 13:08:57;;;;;;;3.28;1.08;;;;;;;;;;4933496;29;20235;-89
2022/09/02 13:11:42;;;;;;;3.40;1.10;;;;;;;;;;4920412;28;20237;-92
2022/09/02 13:14:27;;;;;;;4.78;1.20;;;;;;;;;;5013619;28;20184;-89
2022/09/02 13:17:05;;;;;;;4.10;0.80;;;;;;;;;;5035048;28;20237;-89
2022/09/02 13:20:02;;;;;;;0.77;0.77;;;;;;;;;;5035979;28;20238;-89
2022/09/02 13:22:50;;;;;;;0.98;0.80;;;;;;;;;;4922917;28;20211;-89
2022/09/02 13:25:27;;;;;;;2.78;0.60;;;;;;;;;;4933877;28;20249;-90
2022/09/02 13:28:03;;;;;;;1.83;0.90;;;;;;;;;;4935914;29;20271;-90
2022/09/02 13:30:36;;;;;;;1.95;0.60;;;;;;;;;;4935093;29;20713;-89
2022/09/02 13:33:06;;;;;;;2.63;1.13;;;;;;;;;;4942904;29;20198;-89
2022/09/02 13:35:36;;;;;;;1.23;1.05;;;;;;;;;;4953195;28;20242;-89
2022/09/02 13:38:03;;;;;;;1.75;0.60;;;;;;;;;;4955276;28;20324;-89
2022/09/02 13:40:32;;;;;;;1.98;0.80;;;;;;;;;;4945181;28;20242;-89
2022/09/02 13:43:00;;;;;;;3.50;0.98;;;;;;;;;;4935234;29;20217;-90
2022/09/02 13:45:28;;;;;;;0.80;0.80;;;;;;;;;;4935861;29;20238;-89
2022/09/02 13:47:56;;;;;;;1.92;0.82;;;;;;;;;;4937174;29;20230;-92
2022/09/02 13:50:25;;;;;;;0.70;0.70;;;;;;;;;;4938964;28;20222;-90
2022/09/02 13:52:54;;;;;;;3.10;0.95;;;;;;;;;;4948480;29;20202;-91
2022/09/02 13:55:22;;;;;;;0.93;0.80;;;;;;;;;;4932370;29;20227;-90
2022/09/02 13:57:54;;;;;;;2.72;1.05;;;;;;;;;;4918481;28;20246;-91
2022/09/02 14:00:27;;;;;;;1.50;0.98;;;;;;;;;;4918105;29;20245;-90
2022/09/02 14:02:57;;;;;;;0.60;0.55;;;;;;;;;;4917481;29;20211;-91
2022/09/02 14:05:26;;;;;;;1.77;0.82;;;;;;;;;;4981398;28;20671;-90
2022/09/02 14:07:55;;;;;;;0.70;0.68;;;;;;;;;;4935074;29;20240;-91
2022/09/02 14:10:25;;;;;;;1.95;0.88;;;;;;;;;;4935863;28;20283;-91
2022/09/02 14:12:53;;;;;;;0.85;0.85;;;;;;;;;;4936808;29;20195;-91
2022/09/02 14:15:24;;;;;;;2.00;0.75;;;;;;;;;;4935476;28;20245;-90
2022/09/02 14:18:06;;;;;;;1.95;1.00;;;;;;;;;;4936164;29;20234;-90
2022/09/02 14:20:34;;;;;;;1.65;0.90;;;;;;;;;;4936347;28;20238;-91
2022/09/02 14:23:02;;;;;;;0.85;0.65;;;;;;;;;;4938238;29;20214;-89
2022/09/02 14:25:30;;;;;;;1.25;0.50;;;;;;;;;;4939308;29;20252;-90
2022/09/02 14:27:59;;;;;;;2.17;0.75;;;;;;;;;;4935996;29;20237;-90
2022/09/02 14:30:32;;;;;;;2.03;0.52;;;;;;;;;;4935691;28;20252;-90
2022/09/02 14:33:18;;;;;;;1.33;0.88;;;;;;;;;;4936124;29;20382;-91
2022/09/02 14:35:57;;;;;;;4.80;0.93;;;;;;;;;;4936109;28;20242;-90
2022/09/02 14:38:24;;;;;;;1.58;0.80;;;;;;;;;;4938841;29;20360;-92
2022/09/02 14:40:59;;;;;;;0.80;0.63;;;;;;;;;;4936786;29;20238;-91
2022/09/02 14:43:27;;;;;;;1.13;0.95;;;;;;;;;;4944143;29;20202;-91
2022/09/02 14:46:04;;;;;;;1.60;0.88;;;;;;;;;;4941632;28;20249;-91
2022/09/02 14:48:35;;;;;;;3.60;0.93;;;;;;;;;;4939143;29;20222;-91
2022/09/02 14:51:05;;;;;;;3.35;0.98;;;;;;;;;;4938015;28;20245;-90
2022/09/02 14:53:32;;;;;;;2.13;0.70;;;;;;;;;;4935848;29;20205;-91
2022/09/02 14:55:59;;;;;;;3.72;1.13;;;;;;;;;;4935202;28;20627;-91
2022/09/02 14:58:27;;;;;;;1.38;0.85;;;;;;;;;;4934430;29;20789;-91
2022/09/02 15:00:55;;;;;;;1.30;1.20;;;;;;;;;;4934755;28;20670;-89
2022/09/02 15:03:22;;;;;;;0.85;0.80;;;;;;;;;;4935318;29;20264;-90
2022/09/02 15:05:51;;;;;;;3.22;0.98;;;;;;;;;;4934097;28;20246;-91
2022/09/02 15:08:19;;;;;;;2.35;1.17;;;;;;;;;;4935809;29;20222;-90
2022/09/02 15:10:47;;;;;;;4.88;1.30;;;;;;;;;;4935520;28;20238;-91
2022/09/02 15:13:15;;;;;;;3.22;1.27;;;;;;;;;;4935067;29;20214;-91
2022/09/02 15:15:42;;;;;;;3.47;1.20;;;;;;;;;;4934224;28;20876;-91
2022/09/02 15:18:10;;;;;;;4.22;1.20;;;;;;;;;;4935657;29;20632;-90
2022/09/02 15:20:37;;;;;;;0.80;0.80;;;;;;;;;;4934654;29;20273;-90
2022/09/02 15:23:04;;;;;;;4.32;1.17;;;;;;;;;;5026298;28;20203;-91
2022/09/02 15:25:33;;;;;;;1.63;0.90;;;;;;;;;;5034304;28;20659;-91
2022/09/02 15:28:01;;;;;;;2.83;1.52;;;;;;;;;;5035386;28;20234;-90
2022/09/02 15:30:28;;;;;;;3.20;1.25;;;;;;;;;;5027811;28;20231;-90
2022/09/02 15:32:55;;;;;;;2.88;0.90;;;;;;;;;;4934721;29;20319;-91
2022/09/02 15:35:23;;;;;;;1.05;0.80;;;;;;;;;;4933956;28;20241;-90
2022/09/02 15:37:50;;;;;;;0.80;0.80;;;;;;;;;;4934704;29;20243;-90
2022/09/02 15:40:17;;;;;;;2.25;0.95;;;;;;;;;;4933846;28;20631;-90
2022/09/02 15:42:46;;;;;;;5.18;1.55;;;;;;;;;;4934154;29;20730;-90
2022/09/02 15:45:13;;;;;;;3.55;0.90;;;;;;;;;;4915310;29;20715;-90
2022/09/02 15:47:40;;;;;;;0.57;0.55;;;;;;;;;;4915721;29;20245;-90
2022/09/02 15:50:08;;;;;;;1.35;1.20;;;;;;;;;;4915227;29;20318;-90
2022/09/02 15:52:35;;;;;;;0.75;0.75;;;;;;;;;;4914662;29;20207;-89
2022/09/02 15:55:03;;;;;;;1.08;0.73;;;;;;;;;;5004862;28;20724;-83
2022/09/02 15:57:30;;;;;;;1.08;0.90;;;;;;;;;;5036065;28;20292;-84
2022/09/02 15:59:58;;;;;;;1.38;0.75;;;;;;;;;;5035777;28;20265;-84
2022/09/02 16:02:26;;;;;;;1.85;0.90;;;;;;;;;;5008719;28;20212;-84
2022/09/02 16:04:53;;;;;;;3.35;0.73;;;;;;;;;;4933775;28;20585;-84
2022/09/02 16:07:20;;;;;;;2.92;1.10;;;;;;;;;;4932979;29;20686;-83
2022/09/02 16:09:47;;;;;;;1.60;0.75;;;;;;;;;;4933527;29;20905;-84
2022/09/02 16:12:14;;;;;;;2.97;0.80;;;;;;;;;;4933032;29;20252;-84
2022/09/02 16:14:41;;;;;;;1.60;0.93;;;;;;;;;;4932665;28;20249;-89
2022/09/02 16:17:10;;;;;;;4.00;1.20;;;;;;;;;;4932791;29;20567;-90